sensor_id;sensor_type;location;lat;lon;timestamp;temperature;humidity
38464;DHT22;24243;51.956;5.902;2023-03-02T00:00:54;18.40;49.80
38464;DHT22;24243;51.956;5.902;2023-03-02T00:03:20;18.30;49.80
38464;DHT22;24243;51.956;5.902;2023-03-02T00:05:46;18.30;49.80
38464;DHT22;24243;51.956;5.902;2023-03-02T00:08:12;18.30;49.80
38464;DHT22;24243;51.956;5.902;2023-03-02T00:10:39;18.20;49.80
38464;DHT22;24243;51.956;5.902;2023-03-02T00:13:05;18.30;49.80
38464;DHT22;24243;51.956;5.902;2023-03-02T00:15:30;18.20;49.80
38464;DHT22;24243;51.956;5.902;2023-03-02T00:17:56;18.20;49.80
38464;DHT22;24243;51.956;5.902;2023-03-02T00:20:21;18.20;49.80
38464;DHT22;24243;51.956;5.902;2023-03-02T00:22:47;18.20;49.80
38464;DHT22;24243;51.956;5.902;2023-03-02T00:25:13;18.10;49.80
38464;DHT22;24243;51.956;5.902;2023-03-02T00:27:39;18.10;49.80
38464;DHT22;24243;51.956;5.902;2023-03-02T00:30:05;18.10;49.80
38464;DHT22;24243;51.956;5.902;2023-03-02T00:32:31;18.10;49.80
38464;DHT22;24243;51.956;5.902;2023-03-02T00:34:57;18.10;49.90
38464;DHT22;24243;51.956;5.902;2023-03-02T00:37:22;18.00;49.80
38464;DHT22;24243;51.956;5.902;2023-03-02T00:39:50;18.00;49.80
38464;DHT22;24243;51.956;5.902;2023-03-02T00:42:16;18.00;49.80
38464;DHT22;24243;51.956;5.902;2023-03-02T00:44:42;18.00;49.80
38464;DHT22;24243;51.956;5.902;2023-03-02T00:47:07;18.00;49.80
38464;DHT22;24243;51.956;5.902;2023-03-02T00:49:33;18.00;49.90
38464;DHT22;24243;51.956;5.902;2023-03-02T00:51:59;18.00;49.90
38464;DHT22;24243;51.956;5.902;2023-03-02T00:54:24;18.00;49.80
38464;DHT22;24243;51.956;5.902;2023-03-02T00:56:50;17.90;49.80
38464;DHT22;24243;51.956;5.902;2023-03-02T00:59:16;17.90;49.80
38464;DHT22;24243;51.956;5.902;2023-03-02T01:01:54;17.90;49.80
38464;DHT22;24243;51.956;5.902;2023-03-02T01:04:29;17.90;49.80
38464;DHT22;24243;51.956;5.902;2023-03-02T01:06:56;17.90;49.80
38464;DHT22;24243;51.956;5.902;2023-03-02T01:09:22;17.90;49.80
38464;DHT22;24243;51.956;5.902;2023-03-02T01:11:47;17.90;49.80
38464;DHT22;24243;51.956;5.902;2023-03-02T01:14:13;17.80;49.80
38464;DHT22;24243;51.956;5.902;2023-03-02T01:16:38;17.80;49.80
38464;DHT22;24243;51.956;5.902;2023-03-02T01:19:04;17.80;49.80
38464;DHT22;24243;51.956;5.902;2023-03-02T01:21:29;17.80;49.80
38464;DHT22;24243;51.956;5.902;2023-03-02T01:23:55;17.80;49.80
38464;DHT22;24243;51.956;5.902;2023-03-02T01:26:21;17.80;49.80
38464;DHT22;24243;51.956;5.902;2023-03-02T01:28:47;17.80;49.80
38464;DHT22;24243;51.956;5.902;2023-03-02T01:31:12;17.70;49.80
38464;DHT22;24243;51.956;5.902;2023-03-02T01:33:38;17.70;49.80
38464;DHT22;24243;51.956;5.902;2023-03-02T01:36:03;17.70;49.80
38464;DHT22;24243;51.956;5.902;2023-03-02T01:38:44;17.70;49.80
38464;DHT22;24243;51.956;5.902;2023-03-02T01:41:10;17.70;49.80
38464;DHT22;24243;51.956;5.902;2023-03-02T01:52:45;17.60;49.70
38464;DHT22;24243;51.956;5.902;2023-03-02T01:55:11;17.60;49.80
38464;DHT22;24243;51.956;5.902;2023-03-02T01:57:40;17.60;49.80
38464;DHT22;24243;51.956;5.902;2023-03-02T02:00:11;17.60;49.80
38464;DHT22;24243;51.956;5.902;2023-03-02T02:02:37;17.60;49.80
38464;DHT22;24243;51.956;5.902;2023-03-02T02:05:09;17.60;49.80
38464;DHT22;24243;51.956;5.902;2023-03-02T02:07:36;17.60;49.80
38464;DHT22;24243;51.956;5.902;2023-03-02T02:10:01;17.60;49.80
38464;DHT22;24243;51.956;5.902;2023-03-02T02:12:27;17.60;49.80
38464;DHT22;24243;51.956;5.902;2023-03-02T02:14:53;17.50;50.40
38464;DHT22;24243;51.956;5.902;2023-03-02T02:17:20;17.50;49.80
38464;DHT22;24243;51.956;5.902;2023-03-02T02:22:13;17.60;49.80
38464;DHT22;24243;51.956;5.902;2023-03-02T02:24:43;17.50;49.80
38464;DHT22;24243;51.956;5.902;2023-03-02T02:27:10;17.50;49.80
38464;DHT22;24243;51.956;5.902;2023-03-02T02:29:37;17.50;49.80
38464;DHT22;24243;51.956;5.902;2023-03-02T02:35:06;17.50;49.80
38464;DHT22;24243;51.956;5.902;2023-03-02T02:37:37;17.40;49.80
38464;DHT22;24243;51.956;5.902;2023-03-02T02:40:04;17.40;49.80
38464;DHT22;24243;51.956;5.902;2023-03-02T02:42:34;17.40;49.80
38464;DHT22;24243;51.956;5.902;2023-03-02T02:45:02;17.40;49.80
38464;DHT22;24243;51.956;5.902;2023-03-02T02:47:28;17.40;49.80
38464;DHT22;24243;51.956;5.902;2023-03-02T02:50:31;17.40;49.80
38464;DHT22;24243;51.956;5.902;2023-03-02T02:52:58;17.40;49.80
38464;DHT22;24243;51.956;5.902;2023-03-02T02:55:25;17.40;49.80
38464;DHT22;24243;51.956;5.902;2023-03-02T02:58:32;17.40;49.80
38464;DHT22;24243;51.956;5.902;2023-03-02T03:00:56;17.40;49.80
38464;DHT22;24243;51.956;5.902;2023-03-02T03:03:56;17.30;49.80
38464;DHT22;24243;51.956;5.902;2023-03-02T03:06:33;17.30;49.80
38464;DHT22;24243;51.956;5.902;2023-03-02T03:09:03;17.30;49.80
38464;DHT22;24243;51.956;5.902;2023-03-02T03:11:30;17.30;49.80
38464;DHT22;24243;51.956;5.902;2023-03-02T03:14:01;17.30;49.80
38464;DHT22;24243;51.956;5.902;2023-03-02T03:16:28;17.30;49.80
38464;DHT22;24243;51.956;5.902;2023-03-02T03:18:55;17.30;49.80
38464;DHT22;24243;51.956;5.902;2023-03-02T03:21:40;17.30;49.80
38464;DHT22;24243;51.956;5.902;2023-03-02T03:24:05;17.30;49.80
38464;DHT22;24243;51.956;5.902;2023-03-02T03:26:43;17.30;49.80
38464;DHT22;24243;51.956;5.902;2023-03-02T03:29:09;17.30;49.80
38464;DHT22;24243;51.956;5.902;2023-03-02T03:31:35;17.20;49.80
38464;DHT22;24243;51.956;5.902;2023-03-02T03:34:01;17.20;49.80
38464;DHT22;24243;51.956;5.902;2023-03-02T03:36:27;17.20;49.80
38464;DHT22;24243;51.956;5.902;2023-03-02T03:38:54;17.20;49.80
38464;DHT22;24243;51.956;5.902;2023-03-02T03:41:19;17.20;49.80
38464;DHT22;24243;51.956;5.902;2023-03-02T03:43:45;17.20;49.80
38464;DHT22;24243;51.956;5.902;2023-03-02T03:46:29;17.20;49.80
38464;DHT22;24243;51.956;5.902;2023-03-02T03:49:02;17.20;49.80
38464;DHT22;24243;51.956;5.902;2023-03-02T03:51:28;17.20;49.80
38464;DHT22;24243;51.956;5.902;2023-03-02T03:54:00;17.20;49.80
38464;DHT22;24243;51.956;5.902;2023-03-02T03:56:26;17.20;49.80
38464;DHT22;24243;51.956;5.902;2023-03-02T03:58:52;17.20;49.80
38464;DHT22;24243;51.956;5.902;2023-03-02T04:03:59;17.10;49.80
38464;DHT22;24243;51.956;5.902;2023-03-02T04:06:25;17.10;49.80
38464;DHT22;24243;51.956;5.902;2023-03-02T04:08:51;17.20;49.80
38464;DHT22;24243;51.956;5.902;2023-03-02T04:11:16;17.10;49.70
38464;DHT22;24243;51.956;5.902;2023-03-02T04:14:01;17.20;49.80
38464;DHT22;24243;51.956;5.902;2023-03-02T04:16:27;17.20;49.70
38464;DHT22;24243;51.956;5.902;2023-03-02T04:18:52;17.20;49.70
38464;DHT22;24243;51.956;5.902;2023-03-02T04:21:18;17.20;49.70
38464;DHT22;24243;51.956;5.902;2023-03-02T04:23:43;17.20;49.80
38464;DHT22;24243;51.956;5.902;2023-03-02T04:26:09;17.10;49.70
38464;DHT22;24243;51.956;5.902;2023-03-02T04:28:35;17.10;49.80
38464;DHT22;24243;51.956;5.902;2023-03-02T04:31:00;17.10;49.80
38464;DHT22;24243;51.956;5.902;2023-03-02T04:33:26;17.10;49.80
38464;DHT22;24243;51.956;5.902;2023-03-02T04:35:51;17.10;49.80
38464;DHT22;24243;51.956;5.902;2023-03-02T04:38:19;17.10;49.80
38464;DHT22;24243;51.956;5.902;2023-03-02T04:40:44;17.10;49.80
38464;DHT22;24243;51.956;5.902;2023-03-02T04:43:10;17.10;49.80
38464;DHT22;24243;51.956;5.902;2023-03-02T04:45:36;17.00;49.80
38464;DHT22;24243;51.956;5.902;2023-03-02T04:48:07;17.00;49.80
38464;DHT22;24243;51.956;5.902;2023-03-02T04:50:33;17.00;49.80
38464;DHT22;24243;51.956;5.902;2023-03-02T04:52:58;17.10;49.80
38464;DHT22;24243;51.956;5.902;2023-03-02T04:55:25;17.00;49.80
38464;DHT22;24243;51.956;5.902;2023-03-02T04:57:51;17.00;49.80
38464;DHT22;24243;51.956;5.902;2023-03-02T05:00:17;17.00;49.80
38464;DHT22;24243;51.956;5.902;2023-03-02T05:02:43;17.00;49.80
38464;DHT22;24243;51.956;5.902;2023-03-02T05:05:13;17.00;49.80
38464;DHT22;24243;51.956;5.902;2023-03-02T05:07:39;17.00;49.80
38464;DHT22;24243;51.956;5.902;2023-03-02T05:10:05;17.00;49.80
38464;DHT22;24243;51.956;5.902;2023-03-02T05:12:31;17.10;49.80
38464;DHT22;24243;51.956;5.902;2023-03-02T05:15:16;17.00;49.70
38464;DHT22;24243;51.956;5.902;2023-03-02T05:17:42;17.00;49.80
38464;DHT22;24243;51.956;5.902;2023-03-02T05:20:08;17.00;49.80
38464;DHT22;24243;51.956;5.902;2023-03-02T05:22:33;17.00;49.80
38464;DHT22;24243;51.956;5.902;2023-03-02T05:24:59;17.00;49.80
38464;DHT22;24243;51.956;5.902;2023-03-02T05:27:25;17.00;49.80
38464;DHT22;24243;51.956;5.902;2023-03-02T05:29:50;17.00;49.80
38464;DHT22;24243;51.956;5.902;2023-03-02T05:32:16;17.00;49.80
38464;DHT22;24243;51.956;5.902;2023-03-02T05:34:41;17.00;49.90
38464;DHT22;24243;51.956;5.902;2023-03-02T05:37:07;16.90;49.80
38464;DHT22;24243;51.956;5.902;2023-03-02T05:39:32;16.90;49.80
38464;DHT22;24243;51.956;5.902;2023-03-02T05:41:58;16.90;49.80
38464;DHT22;24243;51.956;5.902;2023-03-02T05:44:24;16.90;49.80
38464;DHT22;24243;51.956;5.902;2023-03-02T05:47:08;16.90;49.80
38464;DHT22;24243;51.956;5.902;2023-03-02T05:49:34;16.90;49.80
38464;DHT22;24243;51.956;5.902;2023-03-02T05:52:18;16.90;49.80
38464;DHT22;24243;51.956;5.902;2023-03-02T05:54:43;16.90;49.90
38464;DHT22;24243;51.956;5.902;2023-03-02T05:57:09;16.90;49.90
38464;DHT22;24243;51.956;5.902;2023-03-02T05:59:34;16.80;49.80
38464;DHT22;24243;51.956;5.902;2023-03-02T06:02:00;16.80;49.80
38464;DHT22;24243;51.956;5.902;2023-03-02T06:04:25;16.80;49.90
38464;DHT22;24243;51.956;5.902;2023-03-02T06:06:51;16.80;49.90
38464;DHT22;24243;51.956;5.902;2023-03-02T06:09:17;16.80;49.90
38464;DHT22;24243;51.956;5.902;2023-03-02T06:11:42;16.70;49.80
38464;DHT22;24243;51.956;5.902;2023-03-02T06:14:08;16.70;49.90
38464;DHT22;24243;51.956;5.902;2023-03-02T06:16:33;16.70;49.90
38464;DHT22;24243;51.956;5.902;2023-03-02T06:19:00;16.70;49.90
38464;DHT22;24243;51.956;5.902;2023-03-02T06:21:25;16.70;49.90
38464;DHT22;24243;51.956;5.902;2023-03-02T06:23:51;16.70;49.90
38464;DHT22;24243;51.956;5.902;2023-03-02T06:26:16;16.70;49.90
38464;DHT22;24243;51.956;5.902;2023-03-02T06:28:45;16.70;49.90
38464;DHT22;24243;51.956;5.902;2023-03-02T06:31:10;16.70;49.90
38464;DHT22;24243;51.956;5.902;2023-03-02T06:33:36;16.70;49.90
38464;DHT22;24243;51.956;5.902;2023-03-02T06:36:01;16.60;49.90
38464;DHT22;24243;51.956;5.902;2023-03-02T06:38:27;16.70;49.90
38464;DHT22;24243;51.956;5.902;2023-03-02T06:40:53;16.60;49.90
38464;DHT22;24243;51.956;5.902;2023-03-02T06:43:18;16.60;49.90
38464;DHT22;24243;51.956;5.902;2023-03-02T06:45:44;16.70;49.90
38464;DHT22;24243;51.956;5.902;2023-03-02T06:48:10;16.70;49.90
38464;DHT22;24243;51.956;5.902;2023-03-02T06:50:35;16.60;49.90
38464;DHT22;24243;51.956;5.902;2023-03-02T06:53:01;16.60;49.80
38464;DHT22;24243;51.956;5.902;2023-03-02T06:55:26;16.60;49.80
38464;DHT22;24243;51.956;5.902;2023-03-02T06:57:52;16.60;49.80
38464;DHT22;24243;51.956;5.902;2023-03-02T07:00:18;16.70;49.90
38464;DHT22;24243;51.956;5.902;2023-03-02T07:02:49;16.70;49.80
38464;DHT22;24243;51.956;5.902;2023-03-02T07:05:18;16.70;49.70
38464;DHT22;24243;51.956;5.902;2023-03-02T07:07:45;16.80;49.70
38464;DHT22;24243;51.956;5.902;2023-03-02T07:10:10;16.80;49.60
38464;DHT22;24243;51.956;5.902;2023-03-02T07:12:38;16.90;49.60
38464;DHT22;24243;51.956;5.902;2023-03-02T07:15:04;16.90;49.50
38464;DHT22;24243;51.956;5.902;2023-03-02T07:17:33;17.00;49.50
38464;DHT22;24243;51.956;5.902;2023-03-02T07:19:58;17.00;49.30
38464;DHT22;24243;51.956;5.902;2023-03-02T07:22:24;17.10;49.40
38464;DHT22;24243;51.956;5.902;2023-03-02T07:24:49;17.10;49.30
38464;DHT22;24243;51.956;5.902;2023-03-02T07:27:15;17.20;49.30
38464;DHT22;24243;51.956;5.902;2023-03-02T07:29:41;17.30;49.30
38464;DHT22;24243;51.956;5.902;2023-03-02T07:32:06;17.40;49.20
38464;DHT22;24243;51.956;5.902;2023-03-02T07:34:32;17.50;49.10
38464;DHT22;24243;51.956;5.902;2023-03-02T07:36:57;17.60;49.00
38464;DHT22;24243;51.956;5.902;2023-03-02T07:39:23;17.70;49.50
38464;DHT22;24243;51.956;5.902;2023-03-02T07:41:49;17.80;48.70
38464;DHT22;24243;51.956;5.902;2023-03-02T07:44:14;17.90;48.70
38464;DHT22;24243;51.956;5.902;2023-03-02T07:46:40;18.00;48.50
38464;DHT22;24243;51.956;5.902;2023-03-02T07:49:05;18.10;48.40
38464;DHT22;24243;51.956;5.902;2023-03-02T07:51:31;18.20;48.40
38464;DHT22;24243;51.956;5.902;2023-03-02T07:53:57;18.20;48.30
38464;DHT22;24243;51.956;5.902;2023-03-02T07:56:22;18.30;48.30
38464;DHT22;24243;51.956;5.902;2023-03-02T07:58:48;18.30;48.30
38464;DHT22;24243;51.956;5.902;2023-03-02T08:01:13;18.30;48.30
38464;DHT22;24243;51.956;5.902;2023-03-02T08:03:39;18.30;48.40
38464;DHT22;24243;51.956;5.902;2023-03-02T08:06:08;18.30;48.40
38464;DHT22;24243;51.956;5.902;2023-03-02T08:08:34;18.30;48.40
38464;DHT22;24243;51.956;5.902;2023-03-02T08:11:07;18.30;48.40
38464;DHT22;24243;51.956;5.902;2023-03-02T08:13:33;18.30;48.30
38464;DHT22;24243;51.956;5.902;2023-03-02T08:15:59;18.40;48.40
38464;DHT22;24243;51.956;5.902;2023-03-02T08:18:25;18.40;48.30
38464;DHT22;24243;51.956;5.902;2023-03-02T08:20:51;18.40;48.30
38464;DHT22;24243;51.956;5.902;2023-03-02T08:23:18;18.40;48.20
38464;DHT22;24243;51.956;5.902;2023-03-02T08:25:43;18.50;48.20
38464;DHT22;24243;51.956;5.902;2023-03-02T08:28:09;18.50;48.20
38464;DHT22;24243;51.956;5.902;2023-03-02T08:30:34;18.50;48.10
38464;DHT22;24243;51.956;5.902;2023-03-02T08:33:00;18.60;48.10
38464;DHT22;24243;51.956;5.902;2023-03-02T08:35:26;18.60;48.10
38464;DHT22;24243;51.956;5.902;2023-03-02T08:37:51;18.60;48.00
38464;DHT22;24243;51.956;5.902;2023-03-02T08:40:18;18.70;48.70
38464;DHT22;24243;51.956;5.902;2023-03-02T08:42:44;18.70;48.00
38464;DHT22;24243;51.956;5.902;2023-03-02T08:45:09;18.70;47.90
38464;DHT22;24243;51.956;5.902;2023-03-02T08:47:36;18.70;47.90
38464;DHT22;24243;51.956;5.902;2023-03-02T08:50:02;18.80;47.90
38464;DHT22;24243;51.956;5.902;2023-03-02T08:52:27;18.80;47.80
38464;DHT22;24243;51.956;5.902;2023-03-02T08:54:53;18.90;47.80
38464;DHT22;24243;51.956;5.902;2023-03-02T08:57:19;18.90;47.80
38464;DHT22;24243;51.956;5.902;2023-03-02T08:59:44;18.90;47.70
38464;DHT22;24243;51.956;5.902;2023-03-02T09:02:10;18.90;47.70
38464;DHT22;24243;51.956;5.902;2023-03-02T09:04:36;18.90;47.60
38464;DHT22;24243;51.956;5.902;2023-03-02T09:07:02;19.00;47.60
38464;DHT22;24243;51.956;5.902;2023-03-02T09:09:28;19.10;47.60
38464;DHT22;24243;51.956;5.902;2023-03-02T09:11:53;19.00;47.50
38464;DHT22;24243;51.956;5.902;2023-03-02T09:14:19;19.10;47.50
38464;DHT22;24243;51.956;5.902;2023-03-02T09:16:44;19.10;47.50
38464;DHT22;24243;51.956;5.902;2023-03-02T09:19:11;19.20;47.40
38464;DHT22;24243;51.956;5.902;2023-03-02T09:21:38;19.20;47.40
38464;DHT22;24243;51.956;5.902;2023-03-02T09:24:03;19.20;47.30
38464;DHT22;24243;51.956;5.902;2023-03-02T09:26:29;19.30;47.30
38464;DHT22;24243;51.956;5.902;2023-03-02T09:28:55;19.30;47.30
38464;DHT22;24243;51.956;5.902;2023-03-02T09:31:20;19.30;47.30
38464;DHT22;24243;51.956;5.902;2023-03-02T09:33:46;19.30;47.30
38464;DHT22;24243;51.956;5.902;2023-03-02T09:36:14;19.30;47.30
38464;DHT22;24243;51.956;5.902;2023-03-02T09:38:42;19.40;47.30
38464;DHT22;24243;51.956;5.902;2023-03-02T09:41:30;19.40;47.30
38464;DHT22;24243;51.956;5.902;2023-03-02T09:51:49;19.40;47.10
38464;DHT22;24243;51.956;5.902;2023-03-02T09:54:20;19.30;47.10
38464;DHT22;24243;51.956;5.902;2023-03-02T09:56:49;19.30;47.30
38464;DHT22;24243;51.956;5.902;2023-03-02T10:01:44;19.30;47.30
38464;DHT22;24243;51.956;5.902;2023-03-02T10:06:40;19.30;47.10
38464;DHT22;24243;51.956;5.902;2023-03-02T10:09:07;19.40;47.10
38464;DHT22;24243;51.956;5.902;2023-03-02T10:11:36;19.40;47.00
38464;DHT22;24243;51.956;5.902;2023-03-02T10:19:26;19.50;46.80
38464;DHT22;24243;51.956;5.902;2023-03-02T10:21:58;19.60;46.80
38464;DHT22;24243;51.956;5.902;2023-03-02T10:24:28;19.60;46.70
38464;DHT22;24243;51.956;5.902;2023-03-02T10:27:01;19.70;46.70
38464;DHT22;24243;51.956;5.902;2023-03-02T10:32:23;19.80;46.60
38464;DHT22;24243;51.956;5.902;2023-03-02T10:34:47;19.80;46.50
38464;DHT22;24243;51.956;5.902;2023-03-02T10:37:19;19.90;46.50
38464;DHT22;24243;51.956;5.902;2023-03-02T10:39:46;19.90;46.50
38464;DHT22;24243;51.956;5.902;2023-03-02T10:42:16;19.90;46.40
38464;DHT22;24243;51.956;5.902;2023-03-02T10:44:45;19.90;46.40
38464;DHT22;24243;51.956;5.902;2023-03-02T10:47:18;20.00;46.40
38464;DHT22;24243;51.956;5.902;2023-03-02T10:49:48;20.00;46.40
38464;DHT22;24243;51.956;5.902;2023-03-02T10:52:14;20.00;46.40
38464;DHT22;24243;51.956;5.902;2023-03-02T10:54:41;20.00;46.30
38464;DHT22;24243;51.956;5.902;2023-03-02T10:59:48;20.10;46.40
38464;DHT22;24243;51.956;5.902;2023-03-02T11:02:19;20.10;46.30
38464;DHT22;24243;51.956;5.902;2023-03-02T11:04:54;20.10;46.30
38464;DHT22;24243;51.956;5.902;2023-03-02T11:07:21;20.10;46.30
38464;DHT22;24243;51.956;5.902;2023-03-02T11:12:22;20.10;46.20
38464;DHT22;24243;51.956;5.902;2023-03-02T11:14:48;20.10;46.20
38464;DHT22;24243;51.956;5.902;2023-03-02T11:17:30;20.20;46.20
38464;DHT22;24243;51.956;5.902;2023-03-02T11:19:57;20.20;46.20
38464;DHT22;24243;51.956;5.902;2023-03-02T11:25:10;20.20;46.10
38464;DHT22;24243;51.956;5.902;2023-03-02T11:27:38;20.20;46.10
38464;DHT22;24243;51.956;5.902;2023-03-02T11:30:24;20.30;46.10
38464;DHT22;24243;51.956;5.902;2023-03-02T11:33:33;20.30;46.00
38464;DHT22;24243;51.956;5.902;2023-03-02T11:36:22;20.30;46.00
38464;DHT22;24243;51.956;5.902;2023-03-02T11:39:11;20.30;46.00
38464;DHT22;24243;51.956;5.902;2023-03-02T11:42:01;20.30;45.90
38464;DHT22;24243;51.956;5.902;2023-03-02T11:44:47;20.30;45.90
38464;DHT22;24243;51.956;5.902;2023-03-02T11:47:33;20.30;45.90
38464;DHT22;24243;51.956;5.902;2023-03-02T11:50:20;20.30;45.90
38464;DHT22;24243;51.956;5.902;2023-03-02T11:53:08;20.30;46.00
38464;DHT22;24243;51.956;5.902;2023-03-02T11:55:55;20.30;46.00
38464;DHT22;24243;51.956;5.902;2023-03-02T11:58:41;20.30;46.10
38464;DHT22;24243;51.956;5.902;2023-03-02T12:01:27;20.20;46.00
38464;DHT22;24243;51.956;5.902;2023-03-02T12:04:25;20.20;46.10
38464;DHT22;24243;51.956;5.902;2023-03-02T12:07:15;20.20;46.10
38464;DHT22;24243;51.956;5.902;2023-03-02T12:10:06;20.20;46.10
38464;DHT22;24243;51.956;5.902;2023-03-02T12:16:32;20.20;46.10
38464;DHT22;24243;51.956;5.902;2023-03-02T12:19:26;20.20;46.10
38464;DHT22;24243;51.956;5.902;2023-03-02T12:22:12;20.10;46.10
38464;DHT22;24243;51.956;5.902;2023-03-02T12:27:49;20.10;46.10
38464;DHT22;24243;51.956;5.902;2023-03-02T12:30:35;20.10;46.10
38464;DHT22;24243;51.956;5.902;2023-03-02T12:33:20;20.10;46.10
38464;DHT22;24243;51.956;5.902;2023-03-02T12:36:10;20.10;46.10
38464;DHT22;24243;51.956;5.902;2023-03-02T12:39:08;20.10;46.10
38464;DHT22;24243;51.956;5.902;2023-03-02T12:44:49;20.00;46.00
38464;DHT22;24243;51.956;5.902;2023-03-02T12:47:36;20.00;46.10
38464;DHT22;24243;51.956;5.902;2023-03-02T12:50:23;20.00;46.10
38464;DHT22;24243;51.956;5.902;2023-03-02T12:53:16;20.00;46.10
38464;DHT22;24243;51.956;5.902;2023-03-02T12:56:02;20.00;46.10
38464;DHT22;24243;51.956;5.902;2023-03-02T12:58:48;19.90;46.00
38464;DHT22;24243;51.956;5.902;2023-03-02T13:01:41;19.90;46.00
38464;DHT22;24243;51.956;5.902;2023-03-02T13:04:27;19.90;46.00
38464;DHT22;24243;51.956;5.902;2023-03-02T13:07:20;19.90;46.10
38464;DHT22;24243;51.956;5.902;2023-03-02T13:10:26;19.90;46.10
38464;DHT22;24243;51.956;5.902;2023-03-02T13:13:20;19.90;46.10
38464;DHT22;24243;51.956;5.902;2023-03-02T13:16:22;19.90;46.10
38464;DHT22;24243;51.956;5.902;2023-03-02T13:19:10;19.90;46.10
38464;DHT22;24243;51.956;5.902;2023-03-02T13:21:59;19.80;46.10
38464;DHT22;24243;51.956;5.902;2023-03-02T13:24:55;19.80;46.10
38464;DHT22;24243;51.956;5.902;2023-03-02T13:27:40;19.80;46.10
38464;DHT22;24243;51.956;5.902;2023-03-02T13:30:36;19.70;46.10
38464;DHT22;24243;51.956;5.902;2023-03-02T13:33:32;19.70;46.10
38464;DHT22;24243;51.956;5.902;2023-03-02T13:36:18;19.70;46.10
38464;DHT22;24243;51.956;5.902;2023-03-02T13:39:02;19.70;46.10
38464;DHT22;24243;51.956;5.902;2023-03-02T13:42:00;19.70;46.20
38464;DHT22;24243;51.956;5.902;2023-03-02T13:48:11;19.60;46.20
38464;DHT22;24243;51.956;5.902;2023-03-02T13:51:02;19.60;46.20
38464;DHT22;24243;51.956;5.902;2023-03-02T13:53:58;19.60;46.30
38464;DHT22;24243;51.956;5.902;2023-03-02T13:56:44;19.50;46.20
38464;DHT22;24243;51.956;5.902;2023-03-02T13:59:29;19.50;46.20
38464;DHT22;24243;51.956;5.902;2023-03-02T14:02:21;19.50;46.30
38464;DHT22;24243;51.956;5.902;2023-03-02T14:05:08;19.40;46.30
38464;DHT22;24243;51.956;5.902;2023-03-02T14:07:54;19.40;46.30
38464;DHT22;24243;51.956;5.902;2023-03-02T14:10:38;19.40;46.40
38464;DHT22;24243;51.956;5.902;2023-03-02T14:13:28;19.40;46.40
38464;DHT22;24243;51.956;5.902;2023-03-02T14:16:15;19.30;46.40
38464;DHT22;24243;51.956;5.902;2023-03-02T14:19:00;19.30;46.40
38464;DHT22;24243;51.956;5.902;2023-03-02T14:21:46;19.30;46.40
38464;DHT22;24243;51.956;5.902;2023-03-02T14:24:32;19.30;46.50
38464;DHT22;24243;51.956;5.902;2023-03-02T14:27:17;19.20;46.40
38464;DHT22;24243;51.956;5.902;2023-03-02T14:30:06;19.20;46.50
38464;DHT22;24243;51.956;5.902;2023-03-02T14:32:56;19.20;46.40
38464;DHT22;24243;51.956;5.902;2023-03-02T14:35:42;19.20;46.50
38464;DHT22;24243;51.956;5.902;2023-03-02T14:38:27;19.10;46.40
38464;DHT22;24243;51.956;5.902;2023-03-02T14:41:13;19.10;46.40
38464;DHT22;24243;51.956;5.902;2023-03-02T14:44:00;19.10;46.40
38464;DHT22;24243;51.956;5.902;2023-03-02T14:46:46;19.10;46.40
38464;DHT22;24243;51.956;5.902;2023-03-02T14:49:31;19.10;46.40
38464;DHT22;24243;51.956;5.902;2023-03-02T14:52:22;19.10;46.40
38464;DHT22;24243;51.956;5.902;2023-03-02T14:55:22;19.00;46.30
38464;DHT22;24243;51.956;5.902;2023-03-02T14:58:14;19.00;46.40
38464;DHT22;24243;51.956;5.902;2023-03-02T15:00:59;19.00;46.40
38464;DHT22;24243;51.956;5.902;2023-03-02T15:03:45;19.00;46.40
38464;DHT22;24243;51.956;5.902;2023-03-02T15:06:30;19.00;46.40
38464;DHT22;24243;51.956;5.902;2023-03-02T15:09:16;19.00;46.40
38464;DHT22;24243;51.956;5.902;2023-03-02T15:12:02;19.00;46.40
38464;DHT22;24243;51.956;5.902;2023-03-02T15:14:47;19.00;46.40
38464;DHT22;24243;51.956;5.902;2023-03-02T15:17:33;19.00;46.40
38464;DHT22;24243;51.956;5.902;2023-03-02T15:20:18;19.00;46.40
38464;DHT22;24243;51.956;5.902;2023-03-02T15:23:04;19.00;46.40
38464;DHT22;24243;51.956;5.902;2023-03-02T15:25:49;19.00;46.40
38464;DHT22;24243;51.956;5.902;2023-03-02T15:28:35;19.00;46.40
38464;DHT22;24243;51.956;5.902;2023-03-02T15:31:20;19.00;46.40
38464;DHT22;24243;51.956;5.902;2023-03-02T15:34:06;19.00;46.40
38464;DHT22;24243;51.956;5.902;2023-03-02T15:36:51;18.90;46.40
38464;DHT22;24243;51.956;5.902;2023-03-02T15:39:37;19.00;46.50
38464;DHT22;24243;51.956;5.902;2023-03-02T15:42:22;18.90;46.40
38464;DHT22;24243;51.956;5.902;2023-03-02T15:45:06;19.00;46.40
38464;DHT22;24243;51.956;5.902;2023-03-02T15:47:50;19.00;46.40
38464;DHT22;24243;51.956;5.902;2023-03-02T15:50:35;19.00;46.40
38464;DHT22;24243;51.956;5.902;2023-03-02T15:53:19;19.00;46.40
38464;DHT22;24243;51.956;5.902;2023-03-02T15:56:21;19.00;46.30
38464;DHT22;24243;51.956;5.902;2023-03-02T15:59:06;19.00;46.30
38464;DHT22;24243;51.956;5.902;2023-03-02T16:01:51;19.00;46.30
38464;DHT22;24243;51.956;5.902;2023-03-02T16:04:37;19.00;46.30
38464;DHT22;24243;51.956;5.902;2023-03-02T16:07:21;19.00;46.30
38464;DHT22;24243;51.956;5.902;2023-03-02T16:10:07;19.00;46.30
38464;DHT22;24243;51.956;5.902;2023-03-02T16:13:03;19.00;46.30
38464;DHT22;24243;51.956;5.902;2023-03-02T16:15:48;19.00;46.30
38464;DHT22;24243;51.956;5.902;2023-03-02T16:18:34;19.00;46.30
38464;DHT22;24243;51.956;5.902;2023-03-02T16:21:19;19.00;46.30
38464;DHT22;24243;51.956;5.902;2023-03-02T16:24:05;19.00;46.30
38464;DHT22;24243;51.956;5.902;2023-03-02T16:26:51;19.00;46.30
38464;DHT22;24243;51.956;5.902;2023-03-02T16:29:37;19.00;46.30
38464;DHT22;24243;51.956;5.902;2023-03-02T16:32:23;19.00;46.30
38464;DHT22;24243;51.956;5.902;2023-03-02T16:35:17;19.00;46.30
38464;DHT22;24243;51.956;5.902;2023-03-02T16:38:03;19.00;46.30
38464;DHT22;24243;51.956;5.902;2023-03-02T16:40:49;19.00;46.30
38464;DHT22;24243;51.956;5.902;2023-03-02T16:43:38;19.00;46.30
38464;DHT22;24243;51.956;5.902;2023-03-02T16:46:28;19.00;46.30
38464;DHT22;24243;51.956;5.902;2023-03-02T16:49:14;19.00;46.30
38464;DHT22;24243;51.956;5.902;2023-03-02T16:52:00;19.00;46.30
38464;DHT22;24243;51.956;5.902;2023-03-02T16:54:45;19.10;46.30
38464;DHT22;24243;51.956;5.902;2023-03-02T16:57:31;19.10;46.20
38464;DHT22;24243;51.956;5.902;2023-03-02T17:00:16;19.10;46.20
38464;DHT22;24243;51.956;5.902;2023-03-02T17:03:02;19.20;46.20
38464;DHT22;24243;51.956;5.902;2023-03-02T17:05:48;19.20;46.20
38464;DHT22;24243;51.956;5.902;2023-03-02T17:08:34;19.20;46.20
38464;DHT22;24243;51.956;5.902;2023-03-02T17:11:20;19.20;46.20